createdAt,value
2023-04-28T00:00:43.358Z,0.65
2023-04-28T00:03:46.455Z,1.00
2023-04-28T00:06:51.061Z,0.93
2023-04-28T00:09:54.200Z,0.90
2023-04-28T00:12:57.396Z,0.73
2023-04-28T00:16:01.796Z,0.63
2023-04-28T00:19:04.824Z,0.50
2023-04-28T00:22:09.493Z,0.85
2023-04-28T00:25:12.436Z,0.93
2023-04-28T00:28:30.509Z,0.68
2023-04-28T00:31:36.370Z,0.80
2023-04-28T00:34:39.411Z,0.70
2023-04-28T00:37:43.738Z,0.73
2023-04-28T00:40:46.668Z,0.73
2023-04-28T00:43:50.944Z,0.80
2023-04-28T00:46:54.925Z,0.90
2023-04-28T00:49:58.122Z,0.60
2023-04-28T00:53:03.356Z,1.20
2023-04-28T00:56:07.313Z,0.93
2023-04-28T00:59:10.298Z,0.90
2023-04-28T01:02:17.632Z,1.10
2023-04-28T01:05:21.428Z,0.98
2023-04-28T01:08:29.644Z,0.80
2023-04-28T01:11:32.654Z,0.80
2023-04-28T01:14:36.037Z,1.00
2023-04-28T01:17:39.077Z,0.97
2023-04-28T01:20:42.092Z,1.15
2023-04-28T01:23:48.764Z,0.95
2023-04-28T01:26:51.738Z,0.90
2023-04-28T01:29:54.715Z,0.90
2023-04-28T01:32:58.449Z,0.93
2023-04-28T01:36:01.743Z,0.82
2023-04-28T01:39:06.375Z,0.88
2023-04-28T01:42:09.371Z,0.90
2023-04-28T01:45:13.302Z,0.90
2023-04-28T01:48:16.457Z,1.08
2023-04-28T01:51:19.723Z,0.70
2023-04-28T01:54:24.604Z,0.70
2023-04-28T01:57:28.966Z,1.30
2023-04-28T02:00:31.948Z,0.52
2023-04-28T02:03:35.000Z,0.70
2023-04-28T02:06:38.202Z,1.10
2023-04-28T02:09:42.936Z,0.82
2023-04-28T02:12:46.111Z,0.90
2023-04-28T02:15:49.231Z,1.08
2023-04-28T02:18:52.177Z,0.87
2023-04-28T02:21:55.293Z,1.13
2023-04-28T02:24:59.893Z,1.00
2023-04-28T02:28:03.216Z,1.05
2023-04-28T02:31:07.883Z,0.73
2023-04-28T02:34:11.167Z,1.08
2023-04-28T02:37:14.118Z,0.95
2023-04-28T02:40:18.662Z,1.08
2023-04-28T02:43:21.929Z,0.70
2023-04-28T02:46:25.283Z,1.13
2023-04-28T02:49:28.300Z,1.02
2023-04-28T02:52:31.358Z,1.00
2023-04-28T02:55:35.734Z,0.95
2023-04-28T02:58:38.708Z,1.25
2023-04-28T03:01:41.823Z,1.25
2023-04-28T03:04:44.941Z,0.88
2023-04-28T03:07:47.917Z,1.00
2023-04-28T03:10:52.394Z,0.95
2023-04-28T03:13:55.410Z,1.23
2023-04-28T03:16:58.869Z,1.17
2023-04-28T03:20:02.208Z,0.82
2023-04-28T03:23:05.406Z,0.77
2023-04-28T03:26:09.845Z,1.38
2023-04-28T03:29:12.813Z,0.90
2023-04-28T03:32:16.111Z,0.77
2023-04-28T03:35:19.519Z,0.98
2023-04-28T03:38:22.851Z,1.07
2023-04-28T03:41:27.264Z,1.30
2023-04-28T03:44:30.235Z,0.82
2023-04-28T03:47:33.314Z,0.93
2023-04-28T03:50:36.309Z,1.10
2023-04-28T03:53:39.302Z,1.20
2023-04-28T03:56:43.941Z,1.67
2023-04-28T03:59:46.982Z,1.60
2023-04-28T04:02:50.012Z,1.30
2023-04-28T04:05:53.660Z,1.77
2023-04-28T04:08:56.694Z,1.40
2023-04-28T04:12:01.344Z,1.30
2023-04-28T04:15:04.914Z,1.67
2023-04-28T04:18:07.976Z,1.40
2023-04-28T04:21:11.103Z,0.95
2023-04-28T04:24:14.198Z,1.60
2023-04-28T04:27:19.141Z,1.67
2023-04-28T04:30:22.282Z,1.85
2023-04-28T04:33:25.329Z,1.30
2023-04-28T04:36:28.496Z,1.50
2023-04-28T04:39:31.418Z,1.75
2023-04-28T04:42:35.948Z,1.65
2023-04-28T04:45:39.418Z,1.42
2023-04-28T04:48:43.271Z,1.63
2023-04-28T04:51:46.334Z,1.65
2023-04-28T04:54:49.379Z,1.35
2023-04-28T04:57:53.730Z,1.55
2023-04-28T05:00:56.637Z,2.15
2023-04-28T05:03:59.856Z,2.00
2023-04-28T05:07:03.013Z,2.20
2023-04-28T05:10:07.564Z,2.13
2023-04-28T05:13:11.919Z,2.45
2023-04-28T05:16:15.049Z,1.65
2023-04-28T05:19:18.145Z,2.15
2023-04-28T05:22:21.148Z,1.52
2023-04-28T05:25:24.228Z,1.95
2023-04-28T05:28:28.774Z,1.65
2023-04-28T05:31:31.705Z,1.80
2023-04-28T05:34:34.803Z,1.73
2023-04-28T05:37:40.218Z,1.60
2023-04-28T05:40:43.391Z,1.65
2023-04-28T05:44:06.873Z,1.42
2023-04-28T05:47:10.014Z,1.52
2023-04-28T05:50:12.996Z,1.40
2023-04-28T05:53:16.180Z,1.40
2023-04-28T05:56:19.408Z,1.00
2023-04-28T05:59:24.162Z,1.42
2023-04-28T06:05:31.391Z,1.05
2023-04-28T06:08:35.085Z,0.80
2023-04-28T06:12:00.368Z,1.55
2023-04-28T06:15:03.311Z,1.38
2023-04-28T06:18:07.321Z,1.25
2023-04-28T06:21:10.372Z,1.20
2023-04-28T06:24:13.482Z,1.05
2023-04-28T06:27:17.966Z,1.25
2023-04-28T06:30:23.491Z,0.52
2023-04-28T06:33:26.467Z,0.90
2023-04-28T06:36:30.525Z,1.25
2023-04-28T06:39:33.468Z,0.88
2023-04-28T06:42:38.026Z,1.05
2023-04-28T06:45:41.740Z,1.40
2023-04-28T06:48:44.720Z,0.68
2023-04-28T06:51:48.181Z,0.93
2023-04-28T06:54:52.094Z,0.77
2023-04-28T06:57:56.638Z,0.90
2023-04-28T07:00:59.667Z,0.60
2023-04-28T07:04:03.052Z,0.75
2023-04-28T07:07:08.347Z,1.00
2023-04-28T07:10:11.655Z,0.95
2023-04-28T07:13:16.670Z,1.23
2023-04-28T07:16:21.404Z,0.93
2023-04-28T07:19:24.468Z,1.10
2023-04-28T07:22:27.469Z,0.75
2023-04-28T07:25:30.776Z,0.73
2023-04-28T07:28:35.176Z,1.30
2023-04-28T07:31:38.572Z,1.15
2023-04-28T07:34:41.680Z,0.57
2023-04-28T07:37:44.877Z,0.82
2023-04-28T07:40:49.480Z,0.82
2023-04-28T07:43:53.858Z,0.95
2023-04-28T07:46:57.473Z,0.98
2023-04-28T07:50:04.680Z,1.05
2023-04-28T07:53:07.691Z,1.10
2023-04-28T07:56:12.127Z,0.80
2023-04-28T07:59:16.479Z,0.90
2023-04-28T08:02:20.587Z,0.85
2023-04-28T08:08:27.046Z,0.70
2023-04-28T08:11:30.457Z,0.70
2023-04-28T08:14:36.618Z,1.20
2023-04-28T08:17:41.464Z,0.85
2023-04-28T08:20:44.530Z,1.15
2023-04-28T08:23:47.652Z,1.10
2023-04-28T08:26:50.939Z,1.33
2023-04-28T08:29:55.390Z,0.70
2023-04-28T08:32:58.958Z,1.20
2023-04-28T08:36:02.432Z,1.02
2023-04-28T08:39:08.530Z,1.47
2023-04-28T08:42:12.125Z,1.00
2023-04-28T08:45:16.961Z,1.48
2023-04-28T08:48:22.965Z,1.20
2023-04-28T08:51:31.710Z,1.85
2023-04-28T08:54:37.676Z,1.27
2023-04-28T08:57:44.579Z,1.40
2023-04-28T09:00:50.195Z,1.55
2023-04-28T09:03:55.390Z,1.88
2023-04-28T09:06:58.670Z,1.40
2023-04-28T09:10:18.989Z,1.55
2023-04-28T09:13:26.548Z,1.92
2023-04-28T09:16:42.450Z,1.60
2023-04-28T09:20:40.209Z,1.50
2023-04-28T09:24:08.104Z,1.75
2023-04-28T09:27:12.680Z,1.75
2023-04-28T09:30:16.401Z,1.77
2023-04-28T09:33:19.772Z,2.13
2023-04-28T09:36:29.440Z,1.73
2023-04-28T09:39:34.127Z,1.70
2023-04-28T09:42:41.122Z,2.08
2023-04-28T09:45:45.820Z,1.80
2023-04-28T09:48:48.944Z,1.88
2023-04-28T09:51:51.938Z,2.22
2023-04-28T09:54:58.287Z,2.20
2023-04-28T09:58:06.903Z,1.60
2023-04-28T10:01:12.626Z,2.03
2023-04-28T10:04:16.351Z,1.92
2023-04-28T10:07:20.872Z,1.70
2023-04-28T10:10:27.237Z,1.40
2023-04-28T10:13:31.132Z,2.53
2023-04-28T10:16:35.099Z,1.77
2023-04-28T10:22:56.404Z,1.73
2023-04-28T10:26:28.617Z,1.60
2023-04-28T10:29:33.537Z,1.85
2023-04-28T10:32:37.078Z,1.88
2023-04-28T10:35:44.492Z,1.60
2023-04-28T10:39:10.684Z,1.75
2023-04-28T10:42:46.833Z,1.45
2023-04-28T10:46:11.548Z,1.80
2023-04-28T10:50:10.411Z,1.58
2023-04-28T10:53:13.504Z,1.83
2023-04-28T10:56:35.409Z,2.10
2023-04-28T10:59:38.401Z,1.63
2023-04-28T11:02:44.886Z,1.60
2023-04-28T11:06:23.672Z,1.98
2023-04-28T11:09:49.794Z,1.60
2023-04-28T11:13:31.714Z,1.67
2023-04-28T11:16:35.333Z,1.33
2023-04-28T11:19:39.718Z,1.77
2023-04-28T11:22:43.555Z,1.27
2023-04-28T11:25:55.977Z,1.50
2023-04-28T11:29:00.660Z,2.03
2023-04-28T11:32:04.796Z,1.40
2023-04-28T11:38:13.001Z,2.47
2023-04-28T11:41:16.207Z,1.80
2023-04-28T11:44:22.412Z,1.58
2023-04-28T11:47:32.759Z,1.15
2023-04-28T11:50:39.283Z,1.63
2023-04-28T11:53:43.651Z,1.33
2023-04-28T11:56:46.914Z,1.42
2023-04-28T11:59:52.484Z,1.35
2023-04-28T12:02:55.847Z,1.20
2023-04-28T12:05:59.133Z,1.30
2023-04-28T12:09:04.704Z,1.30
2023-04-28T12:12:08.740Z,1.88
2023-04-28T12:15:13.231Z,1.40
2023-04-28T12:18:19.448Z,1.23
2023-04-28T12:21:22.832Z,1.63
2023-04-28T12:24:26.804Z,1.40
2023-04-28T12:27:29.780Z,1.50
2023-04-28T12:30:35.820Z,1.75
2023-04-28T12:33:39.636Z,1.63
2023-04-28T12:36:44.873Z,1.55
2023-04-28T12:39:48.228Z,1.63
2023-04-28T12:42:51.730Z,1.70
2023-04-28T12:45:56.936Z,1.17
2023-04-28T12:48:59.981Z,1.20
2023-04-28T12:52:03.203Z,1.17
2023-04-28T12:55:07.256Z,1.50
2023-04-28T12:58:10.199Z,1.48
2023-04-28T13:01:15.963Z,1.08
2023-04-28T13:04:19.547Z,1.23
2023-04-28T13:07:22.813Z,1.50
2023-04-28T13:10:26.655Z,1.15
2023-04-28T13:13:30.001Z,1.30
2023-04-28T13:16:34.658Z,1.20
2023-04-28T13:19:37.898Z,1.65
2023-04-28T13:22:43.857Z,1.35
2023-04-28T13:25:47.146Z,1.52
2023-04-28T13:28:50.352Z,1.20
2023-04-28T13:31:55.091Z,0.95
2023-04-28T13:34:58.017Z,1.40
2023-04-28T13:38:02.595Z,1.40
2023-04-28T13:41:06.047Z,1.40
2023-04-28T13:44:09.188Z,1.30
2023-04-28T13:47:14.020Z,1.30
2023-04-28T13:50:17.653Z,1.52
2023-04-28T13:53:20.803Z,2.03
2023-04-28T13:56:24.093Z,1.00
2023-04-28T13:59:27.197Z,1.07
2023-04-28T14:02:31.999Z,1.52
2023-04-28T14:05:48.293Z,1.25
2023-04-28T14:08:52.536Z,1.40
2023-04-28T14:11:56.706Z,1.33
2023-04-28T14:14:59.707Z,1.20
2023-04-28T14:18:04.446Z,1.33
2023-04-28T14:21:08.408Z,1.25
2023-04-28T14:24:11.657Z,1.20
2023-04-28T14:27:15.098Z,1.20
2023-04-28T14:30:18.574Z,1.20
2023-04-28T14:33:22.914Z,1.23
2023-04-28T14:39:30.788Z,1.10
2023-04-28T14:42:36.411Z,0.98
2023-04-28T14:45:39.427Z,1.35
2023-04-28T14:48:44.600Z,1.10
2023-04-28T14:51:47.638Z,0.90
2023-04-28T14:54:50.935Z,1.10
2023-04-28T14:57:54.539Z,1.10
2023-04-28T15:00:57.650Z,1.13
2023-04-28T15:04:03.030Z,1.50
2023-04-28T15:07:08.440Z,1.40
2023-04-28T15:10:12.333Z,0.95
2023-04-28T15:13:15.584Z,0.98
2023-04-28T15:16:19.708Z,0.93
2023-04-28T15:22:27.196Z,1.20
2023-04-28T15:25:30.517Z,1.08
2023-04-28T15:28:33.568Z,1.10
2023-04-28T15:31:36.628Z,1.50
2023-04-28T15:34:41.133Z,1.25
2023-04-28T15:37:47.858Z,1.27
2023-04-28T15:40:51.105Z,1.40
2023-04-28T15:43:55.773Z,1.33
2023-04-28T15:46:58.749Z,1.27
2023-04-28T15:50:03.274Z,1.25
2023-04-28T15:53:06.445Z,1.33
2023-04-28T15:56:09.417Z,1.20
2023-04-28T15:59:15.915Z,1.88
2023-04-28T16:02:19.138Z,1.10
2023-04-28T16:05:23.814Z,1.07
2023-04-28T16:08:27.404Z,1.20
2023-04-28T16:11:30.383Z,1.80
2023-04-28T16:14:33.415Z,1.30
2023-04-28T16:17:37.981Z,1.60
2023-04-28T16:20:42.474Z,1.55
2023-04-28T16:23:45.696Z,1.42
2023-04-28T16:28:27.966Z,1.70
2023-04-28T16:31:32.806Z,1.35
2023-04-28T16:34:35.881Z,1.33
2023-04-28T16:37:39.092Z,1.35
2023-04-28T16:40:42.069Z,1.60
2023-04-28T16:43:46.391Z,1.40
2023-04-28T16:46:49.583Z,1.50
2023-04-28T16:49:53.519Z,1.38
2023-04-28T16:52:56.638Z,1.73
2023-04-28T16:56:00.133Z,1.77
2023-04-28T16:59:04.420Z,1.30
2023-04-28T17:02:07.406Z,0.95
2023-04-28T17:05:11.129Z,1.23
2023-04-28T17:08:14.897Z,1.35
2023-04-28T17:11:18.635Z,1.38
2023-04-28T17:14:23.215Z,1.50
2023-04-28T17:17:26.239Z,0.98
2023-04-28T17:20:29.582Z,1.55
2023-04-28T17:23:32.564Z,1.67
2023-04-28T17:26:36.379Z,1.45
2023-04-28T17:29:41.294Z,1.45
2023-04-28T17:33:08.327Z,1.88
2023-04-28T17:36:11.354Z,1.95
2023-04-28T17:39:16.398Z,1.88
2023-04-28T17:42:19.750Z,1.63
2023-04-28T17:45:22.915Z,1.55
2023-04-28T17:48:27.413Z,1.80
2023-04-28T17:51:30.379Z,1.58
2023-04-28T17:54:33.894Z,1.60
2023-04-28T17:57:36.856Z,1.47
2023-04-28T18:00:39.937Z,1.77
2023-04-28T18:03:44.257Z,1.38
2023-04-28T18:06:47.679Z,1.40
2023-04-28T18:09:52.808Z,1.42
2023-04-28T18:12:56.316Z,1.50
2023-04-28T18:15:59.281Z,1.47
2023-04-28T18:19:03.576Z,1.13
2023-04-28T18:25:10.347Z,1.50
2023-04-28T18:28:13.220Z,1.42
2023-04-28T18:31:16.305Z,1.10
2023-04-28T18:34:20.834Z,1.50
2023-04-28T18:37:23.761Z,1.55
2023-04-28T18:40:26.766Z,1.83
2023-04-28T18:43:29.700Z,1.27
2023-04-28T18:46:33.560Z,1.48
2023-04-28T18:49:38.328Z,1.52
2023-04-28T18:52:41.921Z,1.08
2023-04-28T18:55:45.112Z,1.77
2023-04-28T18:58:48.281Z,1.52
2023-04-28T19:01:51.436Z,1.45
2023-04-28T19:04:57.233Z,1.63
2023-04-28T19:08:20.619Z,1.90
2023-04-28T19:11:24.293Z,2.30
2023-04-28T19:14:27.182Z,2.17
2023-04-28T19:17:30.747Z,2.47
2023-04-28T19:20:34.213Z,2.17
2023-04-28T19:23:39.421Z,2.10
2023-04-28T19:26:42.316Z,1.90
2023-04-28T19:29:45.205Z,2.15
2023-04-28T19:32:48.204Z,2.08
2023-04-28T19:35:51.490Z,2.00
2023-04-28T19:38:55.727Z,2.17
2023-04-28T19:45:01.884Z,2.60
2023-04-28T19:48:05.094Z,2.10
2023-04-28T19:51:08.148Z,2.28
2023-04-28T19:54:12.977Z,2.75
2023-04-28T19:57:17.259Z,1.80
2023-04-28T20:00:21.543Z,2.33
2023-04-28T20:03:24.601Z,2.17
2023-04-28T20:06:27.539Z,2.67
2023-04-28T20:09:32.197Z,2.35
2023-04-28T20:12:35.618Z,2.33
2023-04-28T20:15:38.773Z,2.67
2023-04-28T20:18:41.681Z,2.80
2023-04-28T20:21:44.923Z,1.98
2023-04-28T20:24:49.231Z,2.63
2023-04-28T20:30:55.134Z,1.73
2023-04-28T20:33:58.444Z,2.63
2023-04-28T20:37:04.456Z,2.60
2023-04-28T20:40:11.508Z,2.10
2023-04-28T20:43:14.368Z,2.35
2023-04-28T20:46:17.990Z,2.53
2023-04-28T20:49:21.165Z,2.40
2023-04-28T20:52:24.037Z,2.35
2023-04-28T20:55:28.304Z,2.53
2023-04-28T21:01:34.491Z,2.03
2023-04-28T21:04:37.715Z,2.10
2023-04-28T21:07:43.033Z,2.70
2023-04-28T21:10:47.356Z,2.03
2023-04-28T21:13:50.411Z,1.95
2023-04-28T21:16:53.378Z,2.38
2023-04-28T21:19:57.264Z,2.30
2023-04-28T21:23:00.290Z,3.35
2023-04-28T21:26:04.735Z,2.45
2023-04-28T21:29:09.129Z,2.47
2023-04-28T21:32:13.023Z,2.10
2023-04-28T21:35:16.077Z,2.13
2023-04-28T21:38:18.969Z,2.08
2023-04-28T21:41:23.701Z,2.60
2023-04-28T21:44:26.596Z,2.17
2023-04-28T21:47:30.073Z,2.60
2023-04-28T21:50:33.165Z,2.90
2023-04-28T21:53:36.082Z,3.13
2023-04-28T21:56:40.533Z,2.42
2023-04-28T21:59:43.942Z,2.28
2023-04-28T22:02:47.019Z,2.60
2023-04-28T22:05:50.240Z,2.45
2023-04-28T22:08:54.095Z,2.55
2023-04-28T22:11:58.522Z,2.50
2023-04-28T22:15:01.415Z,2.40
2023-04-28T22:18:05.172Z,2.30
2023-04-28T22:21:08.523Z,2.00
2023-04-28T22:24:12.693Z,1.95
2023-04-28T22:30:20.020Z,1.90
2023-04-28T22:33:23.201Z,1.77
2023-04-28T22:36:26.098Z,2.20
2023-04-28T22:39:29.144Z,1.40
2023-04-28T22:42:36.479Z,1.85
2023-04-28T22:45:39.393Z,1.58
2023-04-28T22:48:42.357Z,1.75
2023-04-28T22:51:45.260Z,1.42
2023-04-28T22:54:48.924Z,1.83
2023-04-28T22:57:53.134Z,1.27
2023-04-28T23:03:59.252Z,1.05
2023-04-28T23:07:02.276Z,1.80
2023-04-28T23:10:06.666Z,1.58
2023-04-28T23:13:10.868Z,1.30
2023-04-28T23:19:18.672Z,1.27
2023-04-28T23:23:43.961Z,1.80
2023-04-28T23:29:50.048Z,2.13
2023-04-28T23:32:53.097Z,2.40
2023-04-28T23:35:56.050Z,2.63
2023-04-28T23:39:00.282Z,2.63
2023-04-28T23:45:07.178Z,3.45
2023-04-28T23:48:11.013Z,3.10
2023-04-28T23:51:13.894Z,3.25
2023-04-28T23:54:18.452Z,2.75
